Time;durP1;ratioP1;P1;durP2;ratioP2;P2;SDS_P1;SDS_P2;PMS_P1;PMS_P2;Temp;Humidity;BMP_temperature;BMP_pressure;BME280_temperature;BME280_humidity;BME280_pressure;Samples;Min_cycle;Max_cycle;Signal;HPM_P1;HPM_P2
2021/10/29 00:00:58;;;;;;;19.03;12.40;;;;;;;7.95;100.00;100538.00;7391322;19;20446;-53
2021/10/29 00:03:29;;;;;;;20.97;12.73;;;;;;;7.79;100.00;100531.22;7400313;19;20380;-49
2021/10/29 00:05:58;;;;;;;17.53;11.63;;;;;;;7.63;100.00;100535.59;7393690;19;20510;-52
2021/10/29 00:08:28;;;;;;;17.77;12.00;;;;;;;7.59;100.00;100528.50;7397455;19;20488;-46
2021/10/29 00:11:00;;;;;;;22.50;11.97;;;;;;;7.59;100.00;100518.25;7389028;19;20847;-45
2021/10/29 00:13:29;;;;;;;17.60;11.63;;;;;;;7.53;100.00;100528.22;7397670;19;20380;-45
2021/10/29 00:15:59;;;;;;;16.70;11.30;;;;;;;7.45;100.00;100534.66;7389359;19;20696;-47
2021/10/29 00:18:28;;;;;;;19.73;12.40;;;;;;;7.39;100.00;100530.09;7397557;19;20388;-45
2021/10/29 00:20:58;;;;;;;18.37;12.00;;;;;;;7.45;100.00;100521.81;7388544;19;20450;-45
2021/10/29 00:23:30;;;;;;;21.10;13.20;;;;;;;7.43;100.00;100520.06;7398801;19;20399;-45
2021/10/29 00:26:03;;;;;;;20.57;11.13;;;;;;;7.36;100.00;100523.13;7391191;19;20447;-45
2021/10/29 00:28:32;;;;;;;18.60;11.83;;;;;;;7.34;100.00;100518.72;7397365;19;20384;-45
2021/10/29 00:31:01;;;;;;;22.20;12.80;;;;;;;7.29;100.00;100523.63;7388563;19;20495;-45
2021/10/29 00:33:31;;;;;;;19.43;12.80;;;;;;;7.27;100.00;100525.19;7397265;19;20391;-45
2021/10/29 00:36:01;;;;;;;18.43;11.47;;;;;;;7.23;100.00;100524.16;7389848;19;20443;-45
2021/10/29 00:38:31;;;;;;;21.43;12.73;;;;;;;7.23;100.00;100525.88;7396986;19;20396;-47
2021/10/29 00:41:03;;;;;;;17.03;11.33;;;;;;;7.22;100.00;100521.53;7389699;19;20982;-46
2021/10/29 00:43:32;;;;;;;19.53;12.80;;;;;;;7.23;100.00;100518.16;7398216;19;20738;-45
2021/10/29 00:46:02;;;;;;;20.40;12.00;;;;;;;7.22;100.00;100527.53;7390543;19;20590;-45
2021/10/29 00:48:33;;;;;;;20.80;12.53;;;;;;;7.15;100.00;100531.47;7396819;19;20408;-46
2021/10/29 00:51:03;;;;;;;17.93;12.50;;;;;;;7.15;100.00;100530.59;7386800;19;20479;-48
2021/10/29 00:53:33;;;;;;;20.80;13.07;;;;;;;7.08;100.00;100542.19;7401774;19;20402;-47
2021/10/29 00:56:05;;;;;;;16.80;11.03;;;;;;;7.05;100.00;100528.34;7392194;19;20514;-48
2021/10/29 00:58:35;;;;;;;27.30;12.93;;;;;;;7.08;100.00;100531.94;7400979;19;20391;-45
2021/10/29 01:01:05;;;;;;;18.47;12.50;;;;;;;7.05;100.00;100531.78;7395634;19;20429;-45
2021/10/29 01:03:39;;;;;;;20.57;13.10;;;;;;;7.02;100.00;100524.81;7408552;19;20391;-45
2021/10/29 01:06:09;;;;;;;21.37;13.17;;;;;;;7.00;100.00;100515.28;7400982;19;20898;-45
2021/10/29 01:08:39;;;;;;;20.40;13.07;;;;;;;6.99;100.00;100522.06;7408127;19;20455;-47
2021/10/29 01:11:14;;;;;;;20.33;13.10;;;;;;;6.97;100.00;100522.81;7398696;19;20445;-48
2021/10/29 01:13:46;;;;;;;27.40;13.80;;;;;;;6.91;100.00;100519.94;7407272;19;20404;-48
2021/10/29 01:16:15;;;;;;;27.37;13.13;;;;;;;6.86;100.00;100518.00;7395852;19;20902;-44
2021/10/29 01:18:46;;;;;;;18.50;12.43;;;;;;;6.88;100.00;100512.97;7403630;19;20395;-45
2021/10/29 01:21:18;;;;;;;18.77;12.90;;;;;;;6.84;100.00;100509.34;7394673;19;20423;-45
2021/10/29 01:23:48;;;;;;;23.27;12.97;;;;;;;6.81;100.00;100513.44;7403886;19;20388;-50
2021/10/29 01:26:19;;;;;;;23.77;13.50;;;;;;;6.83;100.00;100514.38;7398882;19;20514;-52
2021/10/29 01:28:49;;;;;;;19.20;11.80;;;;;;;6.82;100.00;100505.81;7408558;19;20410;-45
2021/10/29 01:31:19;;;;;;;21.50;12.93;;;;;;;6.82;100.00;100504.94;7394016;19;20432;-46
2021/10/29 01:33:49;;;;;;;20.70;12.77;;;;;;;6.75;100.00;100494.34;7406586;19;20410;-44
2021/10/29 01:36:21;;;;;;;20.83;13.57;;;;;;;6.77;100.00;100496.13;7388224;19;20467;-46
2021/10/29 01:38:52;;;;;;;21.20;13.60;;;;;;;6.77;100.00;100496.97;7403222;19;20394;-46
2021/10/29 01:41:22;;;;;;;23.53;14.30;;;;;;;6.77;100.00;100502.09;7394165;19;20436;-45
2021/10/29 01:43:52;;;;;;;21.53;13.60;;;;;;;6.70;100.00;100513.75;7406773;19;20390;-45
2021/10/29 01:46:21;;;;;;;21.23;13.97;;;;;;;6.69;100.00;100503.38;7396259;19;20435;-44
2021/10/29 01:48:54;;;;;;;25.20;13.97;;;;;;;6.64;100.00;100499.69;7402955;19;20388;-45
2021/10/29 01:51:27;;;;;;;24.67;13.97;;;;;;;6.66;100.00;100498.13;7394188;19;21489;-44
2021/10/29 01:53:56;;;;;;;27.00;14.60;;;;;;;6.59;100.00;100504.56;7403069;19;20475;-44
2021/10/29 01:56:26;;;;;;;31.50;14.37;;;;;;;6.55;100.00;100503.53;7395461;19;20431;-45
2021/10/29 01:58:55;;;;;;;24.60;15.10;;;;;;;6.53;100.00;100489.75;7402709;19;20448;-45
2021/10/29 02:01:25;;;;;;;27.90;14.83;;;;;;;6.54;100.00;100491.53;7393927;19;20451;-49
2021/10/29 02:03:55;;;;;;;24.60;16.10;;;;;;;6.63;100.00;100486.00;7407245;19;20897;-46
2021/10/29 02:06:27;;;;;;;22.87;14.00;;;;;;;6.62;100.00;100482.56;7395107;19;20506;-47
2021/10/29 02:08:57;;;;;;;21.73;14.50;;;;;;;6.52;100.00;100477.75;7402101;19;20380;-45
2021/10/29 02:11:27;;;;;;;22.77;14.77;;;;;;;6.52;100.00;100475.19;7393942;19;20494;-45
2021/10/29 02:13:56;;;;;;;27.23;17.10;;;;;;;6.64;100.00;100468.94;7402349;19;20459;-44
2021/10/29 02:16:26;;;;;;;22.10;14.33;;;;;;;6.65;100.00;100474.16;7394528;19;20506;-45
2021/10/29 02:18:55;;;;;;;23.93;14.30;;;;;;;6.61;100.00;100470.53;7401843;19;20392;-45
2021/10/29 02:21:27;;;;;;;27.90;16.90;;;;;;;6.45;100.00;100468.84;7393007;19;20520;-46
2021/10/29 02:23:58;;;;;;;30.03;16.63;;;;;;;6.41;100.00;100471.16;7401784;19;20719;-45
2021/10/29 02:26:28;;;;;;;25.97;15.70;;;;;;;6.59;100.00;100466.13;7395481;19;20423;-45
2021/10/29 02:28:58;;;;;;;29.10;16.10;;;;;;;6.74;100.00;100455.81;7401420;19;20386;-50
2021/10/29 02:31:27;;;;;;;26.40;15.20;;;;;;;6.78;100.00;100451.72;7392287;19;20431;-49
2021/10/29 02:33:57;;;;;;;23.47;15.30;;;;;;;6.80;100.00;100445.88;7401002;19;20432;-48
2021/10/29 02:36:29;;;;;;;29.83;17.10;;;;;;;6.87;100.00;100450.50;7394679;19;20433;-49
2021/10/29 02:38:58;;;;;;;27.70;15.87;;;;;;;6.93;100.00;100454.19;7401260;19;20410;-45
2021/10/29 02:41:28;;;;;;;25.87;15.47;;;;;;;6.59;100.00;100454.22;7393608;19;20439;-49
2021/10/29 02:43:58;;;;;;;27.87;15.00;;;;;;;6.66;100.00;100446.84;7401377;19;20390;-46
2021/10/29 02:46:27;;;;;;;26.17;14.80;;;;;;;6.43;100.00;100446.47;7394490;19;20426;-45
2021/10/29 02:48:57;;;;;;;28.30;15.43;;;;;;;6.67;100.00;100433.22;7401059;19;20400;-48
2021/10/29 02:51:30;;;;;;;25.60;15.30;;;;;;;6.54;100.00;100441.94;7392451;19;20418;-52
2021/10/29 02:53:59;;;;;;;27.30;16.13;;;;;;;6.73;100.00;100428.41;7401187;19;20455;-47
2021/10/29 02:56:29;;;;;;;31.53;17.70;;;;;;;6.86;100.00;100423.09;7394272;19;20403;-51
2021/10/29 02:58:58;;;;;;;33.37;16.57;;;;;;;7.02;100.00;100422.19;7400628;19;20392;-50
2021/10/29 03:01:28;;;;;;;26.37;15.77;;;;;;;7.06;100.00;100414.66;7392327;19;20487;-49
2021/10/29 03:03:57;;;;;;;30.40;16.20;;;;;;;6.75;100.00;100421.66;7400778;19;20417;-47
2021/10/29 03:06:29;;;;;;;30.13;16.60;;;;;;;6.65;100.00;100416.88;7393417;19;20418;-52
2021/10/29 03:08:59;;;;;;;26.20;16.17;;;;;;;6.65;100.00;100414.31;7400527;19;20656;-47
2021/10/29 03:11:29;;;;;;;26.40;16.33;;;;;;;6.79;100.00;100412.44;7392190;19;20415;-47
2021/10/29 03:13:58;;;;;;;27.10;15.90;;;;;;;6.51;100.00;100411.88;7400879;19;20396;-46
2021/10/29 03:16:28;;;;;;;24.20;15.33;;;;;;;6.44;100.00;100420.06;7394098;19;20479;-51
2021/10/29 03:18:57;;;;;;;26.80;16.00;;;;;;;6.60;100.00;100407.25;7398895;19;20395;-52
2021/10/29 03:21:29;;;;;;;30.17;17.37;;;;;;;6.65;100.00;100415.19;7390058;19;20427;-53
2021/10/29 03:23:59;;;;;;;28.30;16.57;;;;;;;6.68;100.00;100406.75;7399949;19;20726;-51
2021/10/29 03:26:28;;;;;;;26.60;16.40;;;;;;;6.66;100.00;100398.13;7397314;19;20527;-50
2021/10/29 03:28:58;;;;;;;27.23;16.10;;;;;;;6.51;100.00;100395.63;7399546;19;20388;-47
2021/10/29 03:31:27;;;;;;;28.40;17.20;;;;;;;6.61;100.00;100405.56;7391166;19;20439;-49
2021/10/29 03:33:57;;;;;;;30.77;17.77;;;;;;;6.43;100.00;100408.03;7399262;19;20380;-50
2021/10/29 03:36:29;;;;;;;30.60;17.67;;;;;;;6.49;100.00;100400.69;7396082;19;20503;-51
2021/10/29 03:39:02;;;;;;;33.10;18.57;;;;;;;6.66;100.00;100410.94;7397997;19;20384;-48
2021/10/29 03:41:35;;;;;;;36.80;18.20;;;;;;;6.79;100.00;100418.47;7391294;19;20440;-45
2021/10/29 03:44:14;;;;;;;32.07;17.13;;;;;;;6.77;100.00;100408.94;7399466;19;20391;-45
2021/10/29 03:46:44;;;;;;;30.00;17.63;;;;;;;6.51;100.00;100406.75;7398761;19;20414;-46
2021/10/29 03:49:19;;;;;;;29.97;16.90;;;;;;;6.48;100.00;100414.28;7399053;19;20388;-47
2021/10/29 03:51:55;;;;;;;31.43;17.03;;;;;;;7.70;100.00;100410.94;7396507;19;20736;-45
2021/10/29 03:54:28;;;;;;;26.87;15.47;;;;;;;7.55;100.00;100406.81;7393513;19;20379;-45
2021/10/29 03:57:10;;;;;;;21.90;14.43;;;;;;;7.51;100.00;100411.72;7399380;19;20388;-47
2021/10/29 03:59:40;;;;;;;27.30;16.13;;;;;;;7.02;100.00;100416.19;7392044;19;20483;-47
2021/10/29 04:02:11;;;;;;;29.70;15.97;;;;;;;7.25;100.00;100419.03;7397398;19;20487;-47
2021/10/29 04:04:41;;;;;;;23.23;15.07;;;;;;;7.69;100.00;100415.19;7391453;19;20419;-45
2021/10/29 04:07:13;;;;;;;23.63;14.60;;;;;;;7.66;100.00;100417.63;7402439;19;20399;-45
2021/10/29 04:09:44;;;;;;;25.40;15.30;;;;;;;7.76;100.00;100418.06;7391777;19;20478;-48
2021/10/29 04:12:16;;;;;;;24.33;14.27;;;;;;;7.80;100.00;100425.09;7397057;19;20419;-45
2021/10/29 04:14:46;;;;;;;25.63;16.13;;;;;;;7.41;100.00;100428.38;7392323;19;20407;-48
2021/10/29 04:17:16;;;;;;;25.90;15.20;;;;;;;7.51;100.00;100432.28;7398408;19;20652;-45
2021/10/29 04:19:45;;;;;;;22.70;15.13;;;;;;;7.38;100.00;100436.78;7391484;19;20503;-46
2021/10/29 04:22:17;;;;;;;26.50;16.07;;;;;;;7.07;100.00;100448.09;7396437;19;20533;-46
2021/10/29 04:24:47;;;;;;;26.03;15.73;;;;;;;6.94;100.00;100445.69;7392361;19;20736;-45
2021/10/29 04:27:28;;;;;;;28.70;17.23;;;;;;;7.34;100.00;100440.00;7398152;19;20877;-47
2021/10/29 04:29:59;;;;;;;25.30;15.47;;;;;;;7.51;100.00;100447.69;7390836;19;20423;-45
2021/10/29 04:32:29;;;;;;;23.80;15.23;;;;;;;7.39;100.00;100443.69;7398223;19;20882;-46
2021/10/29 04:34:59;;;;;;;28.50;15.63;;;;;;;7.00;100.00;100452.03;7399217;19;20510;-48
2021/10/29 04:37:31;;;;;;;25.70;14.90;;;;;;;7.02;100.00;100457.22;7405332;19;20398;-46
2021/10/29 04:40:00;;;;;;;26.90;15.80;;;;;;;6.80;100.00;100453.56;7398515;19;20410;-52
2021/10/29 04:42:30;;;;;;;36.10;18.30;;;;;;;7.03;100.00;100453.88;7407850;19;20439;-44
2021/10/29 04:44:59;;;;;;;25.90;15.37;;;;;;;6.64;100.00;100459.56;7397746;19;20760;-45
2021/10/29 04:47:28;;;;;;;31.73;18.63;;;;;;;6.65;100.00;100445.94;7405231;19;20416;-47
2021/10/29 04:49:58;;;;;;;31.20;18.77;;;;;;;6.47;100.00;100453.56;7396386;19;20494;-45
2021/10/29 04:52:27;;;;;;;27.67;16.97;;;;;;;6.03;100.00;100458.00;7405087;19;20406;-45
2021/10/29 04:54:59;;;;;;;31.40;18.27;;;;;;;5.69;100.00;100456.94;7398299;19;20474;-45
2021/10/29 04:57:29;;;;;;;53.83;28.23;;;;;;;6.60;100.00;100444.81;7404708;19;20447;-45
2021/10/29 05:00:01;;;;;;;30.87;18.53;;;;;;;6.94;100.00;100438.00;7394441;19;20527;-45
2021/10/29 05:02:31;;;;;;;42.13;22.90;;;;;;;7.45;100.00;100434.53;7405298;19;20410;-48
2021/10/29 05:05:02;;;;;;;29.70;17.13;;;;;;;7.43;100.00;100435.34;7397721;19;20432;-47
2021/10/29 05:07:31;;;;;;;30.97;18.37;;;;;;;7.34;100.00;100434.00;7404822;19;20388;-44
2021/10/29 05:10:03;;;;;;;26.90;15.77;;;;;;;6.87;100.00;100445.38;7397927;19;20415;-44
2021/10/29 05:12:33;;;;;;;37.00;22.47;;;;;;;6.62;100.00;100441.53;7404654;19;20443;-47
2021/10/29 05:15:02;;;;;;;52.83;30.60;;;;;;;6.42;100.00;100442.16;7396945;19;20413;-45
2021/10/29 05:17:32;;;;;;;33.23;19.27;;;;;;;6.17;100.00;100445.97;7404372;19;20737;-45
2021/10/29 05:20:03;;;;;;;32.10;17.93;;;;;;;6.00;100.00;100451.00;7394979;19;20479;-46
2021/10/29 05:22:33;;;;;;;59.77;32.40;;;;;;;5.94;100.00;100450.66;7406385;19;20407;-46
2021/10/29 05:25:05;;;;;;;49.70;27.33;;;;;;;6.03;100.00;100440.97;7400689;19;20417;-45
2021/10/29 05:27:35;;;;;;;37.40;22.20;;;;;;;6.07;100.00;100448.00;7404128;19;20451;-45
2021/10/29 05:30:06;;;;;;;34.60;20.60;;;;;;;5.99;100.00;100441.56;7395783;19;20802;-46
2021/10/29 05:32:36;;;;;;;32.63;19.03;;;;;;;5.89;100.00;100439.28;7403390;19;20459;-45
2021/10/29 05:35:06;;;;;;;33.33;18.37;;;;;;;5.68;100.00;100442.41;7398974;19;20490;-49
2021/10/29 05:37:37;;;;;;;38.27;21.30;;;;;;;5.51;100.00;100447.47;7406249;19;20455;-46
2021/10/29 05:40:11;;;;;;;30.20;17.73;;;;;;;5.72;100.00;100435.78;7394835;19;20410;-48
2021/10/29 05:42:40;;;;;;;41.47;21.53;;;;;;;5.83;100.00;100429.56;7403653;19;20392;-49
2021/10/29 05:45:12;;;;;;;41.23;22.20;;;;;;;5.71;100.00;100424.66;7395437;19;20419;-45
2021/10/29 05:47:42;;;;;;;37.03;20.10;;;;;;;5.55;100.00;100422.91;7403292;19;20395;-49
2021/10/29 05:50:13;;;;;;;34.50;17.97;;;;;;;5.45;100.00;100431.75;7395442;19;20411;-46
2021/10/29 05:52:45;;;;;;;34.03;17.70;;;;;;;5.41;100.00;100434.91;7403334;19;20436;-47
2021/10/29 05:55:18;;;;;;;44.30;24.00;;;;;;;6.19;100.00;100426.41;7396780;19;20407;-46
2021/10/29 05:57:50;;;;;;;73.80;38.73;;;;;;;6.24;100.00;100422.44;7402984;19;20411;-52
2021/10/29 06:00:21;;;;;;;131.17;68.67;;;;;;;6.94;100.00;100420.03;7393628;19;20434;-47
2021/10/29 06:02:51;;;;;;;103.30;50.03;;;;;;;7.22;100.00;100408.63;7402632;19;20451;-49
2021/10/29 06:05:21;;;;;;;44.80;25.10;;;;;;;6.71;100.00;100412.03;7396570;19;20451;-45
2021/10/29 06:07:51;;;;;;;40.80;21.60;;;;;;;6.53;100.00;100419.66;7402586;19;20396;-52
2021/10/29 06:10:23;;;;;;;51.13;25.83;;;;;;;6.45;100.00;100427.84;7395251;19;20712;-46
2021/10/29 06:12:57;;;;;;;38.03;19.53;;;;;;;6.25;100.00;100423.31;7402273;19;20396;-48
2021/10/29 06:15:27;;;;;;;44.87;25.50;;;;;;;6.13;100.00;100424.41;7395133;19;20478;-49
2021/10/29 06:17:56;;;;;;;38.80;24.27;;;;;;;6.00;100.00;100427.94;7402062;19;20388;-51
2021/10/29 06:20:26;;;;;;;35.50;18.70;;;;;;;5.79;100.00;100438.78;7392385;19;20518;-48
2021/10/29 06:22:57;;;;;;;51.23;27.47;;;;;;;6.42;100.00;100442.16;7402219;19;20384;-49
2021/10/29 06:25:31;;;;;;;129.33;67.87;;;;;;;7.01;100.00;100432.38;7395370;19;20431;-49
2021/10/29 06:30:44;;;;;;;38.37;20.17;;;;;;;6.30;100.00;100435.56;7393875;19;20411;-44
2021/10/29 06:33:16;;;;;;;64.47;32.37;;;;;;;6.27;100.00;100435.44;7401143;19;20461;-44
2021/10/29 06:35:45;;;;;;;33.30;18.63;;;;;;;6.25;100.00;100436.13;7395133;19;20486;-46
2021/10/29 06:38:16;;;;;;;32.33;17.53;;;;;;;5.87;100.00;100439.19;7401821;19;20388;-48
2021/10/29 06:40:49;;;;;;;33.50;17.97;;;;;;;5.74;100.00;100441.88;7393234;19;20479;-51
2021/10/29 06:43:25;;;;;;;39.23;20.13;;;;;;;5.71;100.00;100439.13;7401116;19;20384;-46
2021/10/29 06:46:12;;;;;;;39.33;19.20;;;;;;;5.58;100.00;100438.44;7395899;19;20490;-51
2021/10/29 06:48:52;;;;;;;37.10;21.50;;;;;;;5.63;100.00;100441.25;7401442;19;20683;-47
2021/10/29 06:59:56;;;;;;;37.10;20.60;;;;;;;5.50;100.00;100434.56;7391579;19;20407;-51
2021/10/29 07:40:43;;;;;;;36.33;18.97;;;;;;;6.19;100.00;100434.09;7389691;19;20411;-45
2021/10/29 07:43:15;;;;;;;32.70;17.63;;;;;;;6.21;100.00;100423.16;7403989;19;20680;-46
2021/10/29 07:45:47;;;;;;;33.53;17.00;;;;;;;6.24;100.00;100422.44;7392302;19;20431;-46
2021/10/29 07:48:16;;;;;;;30.23;16.60;;;;;;;6.28;100.00;100434.63;7399578;19;20396;-45
2021/10/29 07:50:46;;;;;;;32.00;17.33;;;;;;;6.37;100.00;100430.78;7391237;19;20704;-45
2021/10/29 07:53:15;;;;;;;33.37;16.90;;;;;;;6.42;100.00;100430.22;7399059;19;20451;-45
2021/10/29 07:55:45;;;;;;;33.90;17.60;;;;;;;6.48;100.00;100434.81;7393068;19;20414;-44
2021/10/29 07:58:15;;;;;;;30.03;16.63;;;;;;;6.52;100.00;100431.63;7399373;19;20396;-45
2021/10/29 08:00:47;;;;;;;35.47;15.97;;;;;;;6.54;100.00;100440.25;7391122;19;20494;-44
2021/10/29 08:03:17;;;;;;;38.77;16.73;;;;;;;6.59;100.00;100436.25;7400694;19;20387;-45
2021/10/29 08:05:47;;;;;;;49.13;23.50;;;;;;;6.71;100.00;100437.69;7392882;19;20438;-49
2021/10/29 08:08:19;;;;;;;31.33;17.17;;;;;;;6.80;100.00;100437.28;7407601;19;20398;-47
2021/10/29 08:10:49;;;;;;;32.93;17.10;;;;;;;6.87;100.00;100436.81;7396929;19;20439;-46
2021/10/29 08:13:19;;;;;;;37.60;18.63;;;;;;;6.95;100.00;100435.53;7405197;19;20388;-46
2021/10/29 08:15:54;;;;;;;28.40;15.83;;;;;;;6.96;100.00;100441.50;7398927;19;20467;-44
2021/10/29 08:18:23;;;;;;;26.70;13.87;;;;;;;7.03;100.00;100443.63;7411314;19;20660;-44
2021/10/29 08:20:53;;;;;;;27.30;15.17;;;;;;;7.05;100.00;100447.13;7396982;19;20411;-50
2021/10/29 08:23:23;;;;;;;30.47;16.30;;;;;;;7.28;100.00;100439.72;7407511;19;20395;-44
2021/10/29 08:25:53;;;;;;;25.40;14.60;;;;;;;7.51;100.00;100442.53;7399593;19;20868;-44
2021/10/29 08:28:23;;;;;;;27.43;15.83;;;;;;;7.53;100.00;100441.81;7405816;19;20464;-44
2021/10/29 08:30:55;;;;;;;43.87;22.10;;;;;;;7.56;100.00;100443.66;7396578;19;20415;-45
2021/10/29 08:33:25;;;;;;;29.73;15.23;;;;;;;7.55;100.00;100442.75;7405081;19;20379;-44
2021/10/29 08:35:55;;;;;;;27.00;14.67;;;;;;;7.66;100.00;100447.53;7398621;19;20491;-45
2021/10/29 08:38:24;;;;;;;26.20;15.20;;;;;;;7.85;100.00;100441.63;7407019;19;20401;-45
2021/10/29 08:40:54;;;;;;;47.53;21.40;;;;;;;7.99;100.00;100447.41;7396613;19;20671;-46
2021/10/29 08:43:25;;;;;;;27.10;15.20;;;;;;;8.17;100.00;100446.50;7405364;19;20384;-49
2021/10/29 08:45:57;;;;;;;36.33;18.90;;;;;;;8.32;100.00;100436.91;7397528;19;20411;-46
2021/10/29 08:48:28;;;;;;;26.10;14.73;;;;;;;8.31;100.00;100449.72;7405926;19;20421;-46
2021/10/29 08:50:58;;;;;;;28.00;13.83;;;;;;;8.60;100.00;100438.22;7395822;19;20729;-48
2021/10/29 08:53:28;;;;;;;28.10;14.30;;;;;;;8.69;100.00;100437.75;7404937;19;20896;-45
2021/10/29 08:56:01;;;;;;;24.30;13.10;;;;;;;8.68;100.00;100446.28;7398917;19;20411;-49
2021/10/29 08:58:32;;;;;;;21.97;12.60;;;;;;;8.73;100.00;100455.06;7404903;19;20379;-50
2021/10/29 09:01:09;;;;;;;26.20;13.20;;;;;;;8.81;100.00;100452.84;7395250;19;20491;-47
2021/10/29 09:03:46;;;;;;;26.37;14.23;;;;;;;8.84;100.00;100452.97;7404320;19;20392;-45
2021/10/29 09:06:33;;;;;;;22.90;11.37;;;;;;;8.93;100.00;100459.34;7397380;19;20421;-46
2021/10/29 09:09:09;;;;;;;21.50;12.43;;;;;;;9.06;100.00;100459.03;7404628;19;20423;-47
2021/10/29 09:11:53;;;;;;;21.30;12.50;;;;;;;9.14;100.00;100462.81;7397519;19;20454;-46
2021/10/29 09:31:30;;;;;;;25.00;13.47;;;;;;;9.68;100.00;100434.97;7394326;19;20491;-47
2021/10/29 09:34:05;;;;;;;20.47;12.17;;;;;;;9.82;100.00;100449.31;7406069;19;20415;-45
2021/10/29 09:36:37;;;;;;;19.00;11.50;;;;;;;9.90;100.00;100448.72;7396579;19;20469;-47
2021/10/29 09:39:09;;;;;;;25.87;12.50;;;;;;;10.04;100.00;100450.13;7403578;19;20855;-47
2021/10/29 09:41:39;;;;;;;22.60;12.33;;;;;;;10.21;100.00;100449.91;7394573;19;20415;-52
2021/10/29 09:44:12;;;;;;;21.60;11.10;;;;;;;10.30;100.00;100455.41;7403232;19;20388;-50
2021/10/29 09:46:53;;;;;;;19.40;11.10;;;;;;;10.30;100.00;100452.84;7395838;19;20506;-50
2021/10/29 09:49:28;;;;;;;23.23;10.60;;;;;;;10.43;100.00;100453.34;7395023;19;20421;-48
2021/10/29 09:52:29;;;;;;;25.97;11.30;;;;;;;10.52;100.00;100444.22;7403218;19;20438;-51
2021/10/29 09:55:12;;;;;;;19.50;10.57;;;;;;;10.60;100.00;100452.25;7394616;19;20477;-49
2021/10/29 09:57:49;;;;;;;14.53;9.50;;;;;;;10.54;100.00;100457.19;7400866;19;20634;-51
2021/10/29 10:00:19;;;;;;;21.40;10.47;;;;;;;10.63;100.00;100462.72;7391547;19;20601;-51
2021/10/29 10:02:48;;;;;;;19.40;9.90;;;;;;;10.72;100.00;100462.13;7400684;19;20380;-52
2021/10/29 10:05:22;;;;;;;17.43;10.60;;;;;;;10.85;100.00;100453.16;7392734;19;20869;-50
2021/10/29 10:07:51;;;;;;;19.27;10.70;;;;;;;10.89;100.00;100449.88;7400357;19;20399;-48
2021/10/29 10:10:21;;;;;;;21.30;13.30;;;;;;;11.05;100.00;100453.88;7393931;19;20430;-45
2021/10/29 10:12:52;;;;;;;22.10;10.63;;;;;;;11.16;100.00;100456.81;7402913;19;20459;-46
2021/10/29 10:15:22;;;;;;;18.70;9.40;;;;;;;11.28;100.00;100451.19;7392987;19;20423;-44
2021/10/29 10:17:53;;;;;;;18.30;10.63;;;;;;;11.35;100.00;100449.69;7400222;19;20447;-45
2021/10/29 10:20:25;;;;;;;18.87;8.90;;;;;;;11.44;100.00;100450.00;7391788;19;20711;-44
2021/10/29 10:22:55;;;;;;;15.33;8.40;;;;;;;11.57;100.00;100448.69;7400424;19;20846;-45
2021/10/29 10:25:42;;;;;;;17.50;9.03;;;;;;;11.63;100.00;100445.44;7395063;19;20411;-45
2021/10/29 10:31:16;;;;;;;18.80;10.07;;;;;;;11.78;100.00;100449.34;7389315;19;20758;-46
2021/10/29 10:42:25;;;;;;;14.47;9.00;;;;;;;12.13;100.00;100439.25;7398982;19;20423;-46
2021/10/29 10:45:06;;;;;;;16.33;8.20;;;;;;;12.31;100.00;100440.63;7395360;19;20423;-45
2021/10/29 10:47:37;;;;;;;17.53;8.97;;;;;;;12.46;100.00;100430.72;7401205;19;20380;-49
2021/10/29 10:50:16;;;;;;;16.20;8.93;;;;;;;12.53;100.00;100432.69;7392722;19;20430;-46
2021/10/29 10:53:21;;;;;;;14.17;8.13;;;;;;;12.75;100.00;100440.16;7401112;19;20861;-49
2021/10/29 10:56:13;;;;;;;15.43;8.47;;;;;;;12.86;100.00;100436.16;7392819;19;20430;-45
2021/10/29 10:58:53;;;;;;;14.20;8.17;;;;;;;12.92;100.00;100440.63;7401096;19;20728;-47
2021/10/29 11:01:56;;;;;;;14.80;8.07;;;;;;;12.85;100.00;100438.69;7391747;19;20487;-45
2021/10/29 11:10:09;;;;;;;16.07;8.17;;;;;;;13.26;100.00;100414.72;7390276;19;20402;-46
2021/10/29 11:13:09;;;;;;;15.63;8.73;;;;;;;13.29;100.00;100412.22;7400727;19;20457;-45
2021/10/29 11:15:39;;;;;;;14.43;8.47;;;;;;;13.43;100.00;100407.38;7392729;19;20916;-46
2021/10/29 11:18:28;;;;;;;12.87;7.97;;;;;;;13.58;100.00;100402.59;7400171;19;20412;-46
2021/10/29 11:21:08;;;;;;;11.93;6.80;;;;;;;13.60;100.00;100403.50;7392502;19;20423;-45
2021/10/29 11:23:38;;;;;;;12.33;7.63;;;;;;;13.66;100.00;100395.00;7400481;19;20409;-45
2021/10/29 11:26:22;;;;;;;11.63;7.27;;;;;;;13.75;100.00;100396.94;7394080;19;20757;-45
2021/10/29 11:28:54;;;;;;;15.37;7.80;;;;;;;13.79;100.00;100385.78;7400083;19;20414;-45
2021/10/29 11:31:26;;;;;;;13.67;7.77;;;;;;;13.81;100.00;100391.88;7390541;19;20441;-46
2021/10/29 11:33:58;;;;;;;12.50;7.10;;;;;;;13.95;100.00;100383.53;7397499;19;20409;-46
2021/10/29 11:36:29;;;;;;;12.83;6.70;;;;;;;14.02;100.00;100388.00;7389328;19;20589;-47
2021/10/29 11:38:59;;;;;;;23.00;9.10;;;;;;;14.00;100.00;100392.28;7402887;19;20849;-44
2021/10/29 11:41:33;;;;;;;26.33;10.60;;;;;;;14.06;100.00;100379.47;7390247;19;20431;-47
2021/10/29 11:44:04;;;;;;;14.93;7.13;;;;;;;14.12;100.00;100381.31;7399720;19;20400;-48
2021/10/29 11:46:35;;;;;;;15.53;6.97;;;;;;;14.25;100.00;100379.84;7390640;19;20426;-45
2021/10/29 11:49:07;;;;;;;13.23;6.70;;;;;;;14.38;100.00;100381.84;7402288;19;20464;-45
2021/10/29 11:51:37;;;;;;;10.43;6.53;;;;;;;14.53;100.00;100370.00;7389220;19;20452;-48
2021/10/29 11:54:17;;;;;;;12.33;6.67;;;;;;;14.63;100.00;100371.06;7400899;19;20860;-46
2021/10/29 11:57:00;;;;;;;14.77;6.80;;;;;;;14.76;100.00;100374.81;7394172;19;20478;-47
2021/10/29 11:59:54;;;;;;;10.20;6.20;;;;;;;14.87;100.00;100370.66;7391768;19;20863;-49
2021/10/29 12:07:49;;;;;;;10.70;6.60;;;;;;;15.13;100.00;100370.25;7398662;19;20376;-48
2021/10/29 12:10:22;;;;;;;13.40;6.57;;;;;;;15.10;100.00;100368.47;7391636;19;20510;-47
2021/10/29 12:12:57;;;;;;;16.40;6.40;;;;;;;15.14;100.00;100371.13;7398480;19;20456;-49
2021/10/29 12:15:28;;;;;;;13.10;6.57;;;;;;;15.33;100.00;100375.75;7391709;19;20454;-46
2021/10/29 12:18:04;;;;;;;11.67;6.23;;;;;;;15.36;100.00;100365.44;7399117;19;20395;-50
2021/10/29 12:20:38;;;;;;;12.50;6.47;;;;;;;15.40;100.00;100361.16;7389463;19;20494;-48
2021/10/29 12:23:12;;;;;;;9.17;6.00;;;;;;;15.30;100.00;100369.66;7396713;19;20454;-48
2021/10/29 12:25:46;;;;;;;10.73;6.30;;;;;;;15.55;100.00;100359.63;7391994;19;20498;-48
2021/10/29 12:28:23;;;;;;;17.77;7.30;;;;;;;16.09;100.00;100356.94;7397842;19;20398;-51
2021/10/29 12:30:56;;;;;;;9.87;5.47;;;;;;;16.14;100.00;100350.03;7389057;19;20419;-50
2021/10/29 12:51:55;;;;;;;10.37;5.63;;;;;;;15.60;100.00;100347.56;7397598;19;20455;-49
2021/10/29 12:58:56;;;;;;;8.70;5.20;;;;;;;15.32;100.00;100336.75;7407762;19;20398;-46
2021/10/29 13:01:30;;;;;;;15.37;6.33;;;;;;;15.20;100.00;100327.94;7398174;19;20506;-54
2021/10/29 13:04:02;;;;;;;8.20;5.30;;;;;;;15.34;100.00;100322.06;7408703;19;20399;-53
2021/10/29 13:06:33;;;;;;;10.27;6.17;;;;;;;15.35;100.00;100323.81;7399337;19;20446;-55
2021/10/29 13:09:04;;;;;;;8.60;5.40;;;;;;;15.43;100.00;100324.78;7407695;19;20402;-52
2021/10/29 13:11:36;;;;;;;8.90;4.80;;;;;;;15.38;100.00;100316.03;7399419;19;21443;-46
2021/10/29 13:14:07;;;;;;;10.47;5.40;;;;;;;15.33;100.00;100323.78;7407756;19;20468;-47
2021/10/29 13:16:39;;;;;;;9.53;5.00;;;;;;;15.23;100.00;100312.38;7399662;19;20476;-46
2021/10/29 13:19:34;;;;;;;9.30;4.60;;;;;;;15.32;100.00;100310.75;7407606;19;20396;-53
2021/10/29 13:28:01;;;;;;;7.00;4.43;;;;;;;15.38;100.00;100292.66;7407702;19;20403;-45
2021/10/29 13:36:11;;;;;;;7.63;4.77;;;;;;;15.19;100.00;100295.00;7400323;19;20899;-48